Barre, Massachusetts
Current Conditions -  °F | °C
As of 8:52 PM on Sunday 25 Jan 2015 (Local Time) from KORE Reporting Station
Clear Clear  
Wind Chill: 18°   Ceiling: Unl
Heat Index: 18°   Visibility: 10mi
Dew Point:   Wind: 3mph
Humidity: 52%   Direction: 290°WNW
Pressure: 29.95"   Gusts: NA
Location:  42.41°N, 72.1°W
Report Text: KORE 260152Z AUTO 29003KT 10SM CLR M08/M16 A2995 RMK AO2 SLP149 T10781161
Loading
Personal Weather Stations






























Interactive Weather Map New forecast layout! Learn more

10-Day Weather Forecast

Advertisements
Track Severe Weather on mobile